Time,TemperatureF,DewpointF,PressureIn,WindDirection,WindDirectionDegrees,WindSpeedMPH,WindSpeedGustMPH,Humidity,HourlyPrecipIn,Conditions,Clouds,dailyrainin,SoftwareType,DateUTC
2013-08-31 00:11:00,77.0,71.0,29.77,NNE,16,0.0,-999.0,82,-99.99,,,0.00,weatherlink.com 1.10,2013-08-31 04:11:00,
2013-08-31 00:26:00,77.0,72.0,29.78,East,96,0.0,-999.0,83,-99.99,,,0.00,weatherlink.com 1.10,2013-08-31 04:26:00,
2013-08-31 00:41:00,77.2,71.0,29.79,East,91,0.0,-999.0,82,-99.99,,,0.00,weatherlink.com 1.10,2013-08-31 04:41:00,
2013-08-31 00:56:00,77.0,72.0,29.79,NNE,27,2.0,-999.0,84,-99.99,,,0.00,weatherlink.com 1.10,2013-08-31 04:56:00,
2013-08-31 01:11:00,76.7,72.0,29.78,NNE,29,0.0,-999.0,85,-99.99,,,0.00,weatherlink.com 1.10,2013-08-31 05:11:00,
2013-08-31 01:26:00,76.4,72.0,29.78,NNE,29,0.0,-999.0,85,-99.99,,,0.00,weatherlink.com 1.10,2013-08-31 05:26:00,
2013-08-31 01:41:00,75.9,71.0,29.79,SE,146,1.0,-999.0,85,-99.99,,,0.00,weatherlink.com 1.10,2013-08-31 05:41:00,
2013-08-31 01:56:00,75.4,71.0,29.79,South,169,0.0,-999.0,86,-99.99,,,0.00,weatherlink.com 1.10,2013-08-31 05:56:00,
2013-08-31 02:11:00,74.7,71.0,29.79,SSW,198,0.0,-999.0,87,-99.99,,,0.00,weatherlink.com 1.10,2013-08-31 06:11:00,
2013-08-31 02:26:00,73.8,70.0,29.80,SSE,160,0.0,-999.0,87,-99.99,,,0.00,weatherlink.com 1.10,2013-08-31 06:26:00,
2013-08-31 02:41:00,73.0,69.0,29.79,SSE,166,0.0,-999.0,87,-99.99,,,0.00,weatherlink.com 1.10,2013-08-31 06:41:00,
2013-08-31 02:56:00,72.6,69.0,29.79,SW,228,0.0,-999.0,88,-99.99,,,0.00,weatherlink.com 1.10,2013-08-31 06:56:00,
2013-08-31 03:11:00,72.3,69.0,29.80,WSW,243,0.0,-999.0,88,-99.99,,,0.00,weatherlink.com 1.10,2013-08-31 07:11:00,
2013-08-31 03:26:00,72.2,69.0,29.80,WSW,243,0.0,-999.0,88,-99.99,,,0.00,weatherlink.com 1.10,2013-08-31 07:26:00,
2013-08-31 03:41:00,72.4,69.0,29.80,WSW,245,0.0,-999.0,88,-99.99,,,0.00,weatherlink.com 1.10,2013-08-31 07:41:00,
2013-08-31 03:56:00,72.6,69.0,29.80,WSW,243,0.0,-999.0,88,-99.99,,,0.00,weatherlink.com 1.10,2013-08-31 07:56:00,
2013-08-31 04:11:00,72.4,69.0,29.79,WSW,243,0.0,-999.0,89,-99.99,,,0.00,weatherlink.com 1.10,2013-08-31 08:11:00,
2013-08-31 04:26:00,72.2,69.0,29.80,WSW,243,0.0,-999.0,89,-99.99,,,0.00,weatherlink.com 1.10,2013-08-31 08:26:00,
2013-08-31 04:41:00,71.9,69.0,29.79,WSW,246,0.0,-999.0,89,-99.99,,,0.00,weatherlink.com 1.10,2013-08-31 08:41:00,
2013-08-31 04:56:00,71.6,69.0,29.79,WSW,246,0.0,-999.0,90,-99.99,,,0.00,weatherlink.com 1.10,2013-08-31 08:56:00,
2013-08-31 05:11:00,71.1,68.0,29.79,WSW,246,0.0,-999.0,90,-99.99,,,0.00,weatherlink.com 1.10,2013-08-31 09:11:00,
2013-08-31 05:26:00,70.7,68.0,29.79,WSW,243,0.0,-999.0,90,-99.99,,,0.00,weatherlink.com 1.10,2013-08-31 09:26:00,
2013-08-31 05:41:00,70.3,67.0,29.79,WSW,239,0.0,-999.0,90,-99.99,,,0.00,weatherlink.com 1.10,2013-08-31 09:41:00,
2013-08-31 05:56:00,69.9,67.0,29.80,WSW,239,0.0,-999.0,91,-99.99,,,0.00,weatherlink.com 1.10,2013-08-31 09:56:00,
2013-08-31 06:11:00,69.7,67.0,29.79,WSW,239,0.0,-999.0,91,-99.99,,,0.00,weatherlink.com 1.10,2013-08-31 10:11:00,
2013-08-31 06:26:00,69.5,67.0,29.79,WSW,239,0.0,-999.0,91,-99.99,,,0.00,weatherlink.com 1.10,2013-08-31 10:26:00,
2013-08-31 06:41:00,69.4,67.0,29.80,WSW,239,0.0,-999.0,91,-99.99,,,0.00,weatherlink.com 1.10,2013-08-31 10:41:00,
2013-08-31 06:56:00,69.4,67.0,29.81,WSW,239,0.0,-999.0,92,-99.99,,,0.00,weatherlink.com 1.10,2013-08-31 10:56:00,
2013-08-31 07:11:00,69.8,68.0,29.82,WSW,239,0.0,-999.0,93,-99.99,,,0.00,weatherlink.com 1.10,2013-08-31 11:11:00,
2013-08-31 07:26:00,70.5,68.0,29.82,WSW,239,0.0,-999.0,93,-99.99,,,0.00,weatherlink.com 1.10,2013-08-31 11:26:00,
2013-08-31 07:41:00,71.1,69.0,29.83,WSW,239,0.0,-999.0,93,-99.99,,,0.00,weatherlink.com 1.10,2013-08-31 11:41:00,
2013-08-31 07:56:00,71.4,69.0,29.83,WSW,239,0.0,-999.0,93,-99.99,,,0.00,weatherlink.com 1.10,2013-08-31 11:56:00,
2013-08-31 08:11:00,71.4,69.0,29.84,WSW,239,0.0,-999.0,93,-99.99,,,0.00,weatherlink.com 1.10,2013-08-31 12:11:00,
2013-08-31 08:26:00,71.6,69.0,29.84,WSW,239,0.0,-999.0,92,-99.99,,,0.00,weatherlink.com 1.10,2013-08-31 12:26:00,
2013-08-31 08:41:00,72.1,69.0,29.84,WSW,239,0.0,-999.0,91,-99.99,,,0.00,weatherlink.com 1.10,2013-08-31 12:41:00,
2013-08-31 08:56:00,72.9,70.0,29.85,NNE,30,0.0,-999.0,89,-99.99,,,0.00,weatherlink.com 1.10,2013-08-31 12:56:00,
2013-08-31 09:11:00,74.1,70.0,29.85,NNE,30,0.0,-999.0,88,-99.99,,,0.00,weatherlink.com 1.10,2013-08-31 13:11:00,
2013-08-31 09:26:00,74.9,70.0,29.85,NNW,332,0.0,-999.0,85,-99.99,,,0.00,weatherlink.com 1.10,2013-08-31 13:26:00,
2013-08-31 09:41:00,75.1,70.0,29.85,North,360,0.0,-999.0,84,-99.99,,,0.00,weatherlink.com 1.10,2013-08-31 13:41:00,
2013-08-31 09:56:00,75.5,70.0,29.86,SW,215,0.0,-999.0,82,-99.99,,,0.00,weatherlink.com 1.10,2013-08-31 13:56:00,
2013-08-31 10:11:00,75.7,70.0,29.86,NNE,32,0.0,-999.0,82,-99.99,,,0.00,weatherlink.com 1.10,2013-08-31 14:11:00,
2013-08-31 10:26:00,75.8,69.0,29.86,NNE,19,0.0,-999.0,80,-99.99,,,0.00,weatherlink.com 1.10,2013-08-31 14:26:00,
2013-08-31 10:41:00,75.9,70.0,29.86,North,4,0.0,-999.0,81,-99.99,,,0.00,weatherlink.com 1.10,2013-08-31 14:41:00,
2013-08-31 10:56:00,76.5,70.0,29.86,NNE,25,0.0,-999.0,79,-99.99,,,0.00,weatherlink.com 1.10,2013-08-31 14:56:00,
2013-08-31 11:11:00,76.6,69.0,29.86,SE,131,0.0,-999.0,76,-99.99,,,0.00,weatherlink.com 1.10,2013-08-31 15:11:00,
2013-08-31 11:26:00,77.8,69.0,29.86,NE,34,0.0,-999.0,75,-99.99,,,0.00,weatherlink.com 1.10,2013-08-31 15:26:00,
2013-08-31 11:41:00,77.0,69.0,29.86,WSW,257,0.0,-999.0,76,-99.99,,,0.00,weatherlink.com 1.10,2013-08-31 15:41:00,
2013-08-31 11:56:00,77.9,69.0,29.85,ESE,108,0.0,-999.0,73,-99.99,,,0.00,weatherlink.com 1.10,2013-08-31 15:56:00,
2013-08-31 12:11:00,78.9,67.0,29.85,NNE,30,0.0,-999.0,68,-99.99,,,0.00,weatherlink.com 1.10,2013-08-31 16:11:00,
2013-08-31 12:26:00,79.9,70.0,29.85,WSW,249,0.0,-999.0,71,-99.99,,,0.00,weatherlink.com 1.10,2013-08-31 16:26:00,
2013-08-31 12:41:00,79.3,69.0,29.84,NE,41,0.0,-999.0,70,-99.99,,,0.00,weatherlink.com 1.10,2013-08-31 16:41:00,
2013-08-31 12:56:00,80.2,68.0,29.85,WSW,246,0.0,-999.0,67,-99.99,,,0.00,weatherlink.com 1.10,2013-08-31 16:56:00,
2013-08-31 13:11:00,80.1,69.0,29.84,SSE,150,0.0,-999.0,69,-99.99,,,0.00,weatherlink.com 1.10,2013-08-31 17:11:00,
2013-08-31 13:26:00,80.5,69.0,29.85,NNE,16,0.0,-999.0,67,-99.99,,,0.00,weatherlink.com 1.10,2013-08-31 17:26:00,
2013-08-31 13:41:00,82.6,69.0,29.85,North,6,0.0,-999.0,64,-99.99,,,0.00,weatherlink.com 1.10,2013-08-31 17:41:00,
2013-08-31 13:56:00,82.5,69.0,29.84,South,176,0.0,-999.0,64,-99.99,,,0.00,weatherlink.com 1.10,2013-08-31 17:56:00,
2013-08-31 14:11:00,81.8,69.0,29.85,West,262,0.0,-999.0,65,-99.99,,,0.00,weatherlink.com 1.10,2013-08-31 18:11:00,
2013-08-31 14:26:00,82.8,69.0,29.84,NW,320,0.0,-999.0,63,-99.99,,,0.00,weatherlink.com 1.10,2013-08-31 18:26:00,
2013-08-31 14:41:00,84.1,69.0,29.84,North,6,1.0,-999.0,61,-99.99,,,0.00,weatherlink.com 1.10,2013-08-31 18:41:00,
2013-08-31 14:56:00,82.3,68.0,29.84,NE,34,0.0,-999.0,63,-99.99,,,0.00,weatherlink.com 1.10,2013-08-31 18:56:00,
2013-08-31 15:11:00,81.8,68.0,29.84,NE,41,0.0,-999.0,64,-99.99,,,0.00,weatherlink.com 1.10,2013-08-31 19:11:00,
2013-08-31 15:26:00,82.0,69.0,29.84,NNE,28,0.0,-999.0,64,-99.99,,,0.00,weatherlink.com 1.10,2013-08-31 19:26:00,
2013-08-31 15:41:00,83.2,68.0,29.83,SW,232,0.0,-999.0,61,-99.99,,,0.00,weatherlink.com 1.10,2013-08-31 19:41:00,
2013-08-31 15:56:00,83.2,68.0,29.82,NE,39,0.0,-999.0,60,-99.99,,,0.00,weatherlink.com 1.10,2013-08-31 19:56:00,
2013-08-31 16:11:00,84.2,68.0,29.82,North,6,0.0,-999.0,59,-99.99,,,0.00,weatherlink.com 1.10,2013-08-31 20:11:00,
2013-08-31 16:26:00,83.1,68.0,29.82,NE,53,0.0,-999.0,61,-99.99,,,0.00,weatherlink.com 1.10,2013-08-31 20:26:00,
2013-08-31 16:41:00,83.1,69.0,29.82,SE,128,0.0,-999.0,62,-99.99,,,0.00,weatherlink.com 1.10,2013-08-31 20:41:00,
2013-08-31 16:56:00,84.3,69.0,29.82,SW,219,0.0,-999.0,61,-99.99,,,0.00,weatherlink.com 1.10,2013-08-31 20:56:00,
2013-08-31 17:11:00,83.5,68.0,29.81,SW,219,0.0,-999.0,60,-99.99,,,0.00,weatherlink.com 1.10,2013-08-31 21:11:00,
2013-08-31 17:26:00,83.3,69.0,29.81,SW,219,0.0,-999.0,62,-99.99,,,0.00,weatherlink.com 1.10,2013-08-31 21:26:00,
2013-08-31 17:41:00,82.6,68.0,29.82,SW,219,0.0,-999.0,62,-99.99,,,0.00,weatherlink.com 1.10,2013-08-31 21:41:00,
2013-08-31 17:57:00,81.9,68.0,29.81,SW,219,0.0,-999.0,63,-99.99,,,0.00,weatherlink.com 1.10,2013-08-31 21:57:00,
2013-08-31 18:11:00,80.9,68.0,29.81,SW,219,0.0,-999.0,65,-99.99,,,0.00,weatherlink.com 1.10,2013-08-31 22:11:00,
2013-08-31 18:26:00,80.2,68.0,29.80,SW,219,0.0,-999.0,67,-99.99,,,0.00,weatherlink.com 1.10,2013-08-31 22:26:00,
2013-08-31 18:41:00,79.9,68.0,29.80,SW,219,0.0,-999.0,68,-99.99,,,0.00,weatherlink.com 1.10,2013-08-31 22:41:00,
2013-08-31 18:56:00,79.3,68.0,29.80,SW,219,0.0,-999.0,69,-99.99,,,0.00,weatherlink.com 1.10,2013-08-31 22:56:00,
2013-08-31 19:11:00,78.9,69.0,29.80,ENE,63,0.0,-999.0,71,-99.99,,,0.00,weatherlink.com 1.10,2013-08-31 23:11:00,
2013-08-31 19:26:00,78.6,68.0,29.80,ENE,69,0.0,-999.0,71,-99.99,,,0.00,weatherlink.com 1.10,2013-08-31 23:26:00,
2013-08-31 19:41:00,78.3,69.0,29.80,NE,45,0.0,-999.0,73,-99.99,,,0.00,weatherlink.com 1.10,2013-08-31 23:41:00,
2013-08-31 19:56:00,77.8,69.0,29.81,NE,44,0.0,-999.0,73,-99.99,,,0.00,weatherlink.com 1.10,2013-08-31 23:56:00,
2013-08-31 20:11:00,77.3,68.0,29.81,East,101,0.0,-999.0,74,-99.99,,,0.00,weatherlink.com 1.10,2013-09-01 00:11:00,
2013-08-31 20:26:00,76.6,69.0,29.82,East,90,0.0,-999.0,76,-99.99,,,0.00,weatherlink.com 1.10,2013-09-01 00:26:00,
2013-08-31 20:41:00,76.0,69.0,29.82,East,92,0.0,-999.0,78,-99.99,,,0.00,weatherlink.com 1.10,2013-09-01 00:41:00,
2013-08-31 20:56:00,75.5,69.0,29.83,East,92,0.0,-999.0,79,-99.99,,,0.00,weatherlink.com 1.10,2013-09-01 00:56:00,
2013-08-31 21:11:00,75.0,69.0,29.84,East,91,0.0,-999.0,81,-99.99,,,0.00,weatherlink.com 1.10,2013-09-01 01:11:00,
2013-08-31 21:26:00,74.6,69.0,29.83,East,90,0.0,-999.0,82,-99.99,,,0.00,weatherlink.com 1.10,2013-09-01 01:26:00,
2013-08-31 21:41:00,74.5,68.0,29.84,East,91,0.0,-999.0,81,-99.99,,,0.00,weatherlink.com 1.10,2013-09-01 01:41:00,
2013-08-31 21:56:00,74.4,68.0,29.83,East,95,0.0,-999.0,81,-99.99,,,0.00,weatherlink.com 1.10,2013-09-01 01:56:00,
2013-08-31 22:11:00,74.3,69.0,29.84,East,95,0.0,-999.0,82,-99.99,,,0.00,weatherlink.com 1.10,2013-09-01 02:11:00,
2013-08-31 22:26:00,74.3,69.0,29.84,East,94,0.0,-999.0,84,-99.99,,,0.00,weatherlink.com 1.10,2013-09-01 02:26:00,
2013-08-31 22:41:00,74.2,70.0,29.84,East,94,0.0,-999.0,85,-99.99,,,0.00,weatherlink.com 1.10,2013-09-01 02:41:00,
2013-08-31 22:56:00,74.0,70.0,29.84,SSE,158,0.0,-999.0,87,-99.99,,,0.00,weatherlink.com 1.10,2013-09-01 02:56:00,
2013-08-31 23:11:00,73.5,70.0,29.83,SE,143,0.0,-999.0,88,-99.99,,,0.00,weatherlink.com 1.10,2013-09-01 03:11:00,
2013-08-31 23:26:00,73.2,70.0,29.83,SE,143,0.0,-999.0,89,-99.99,,,0.00,weatherlink.com 1.10,2013-09-01 03:26:00,
2013-08-31 23:41:00,72.9,70.0,29.83,SE,143,0.0,-999.0,89,-99.99,,,0.00,weatherlink.com 1.10,2013-09-01 03:41:00,
2013-08-31 23:56:00,72.7,69.0,29.84,SE,143,0.0,-999.0,89,-99.99,,,0.00,weatherlink.com 1.10,2013-09-01 03:56:00,